sensor_id;sensor_type;location;lat;lon;timestamp;temperature;humidity
16172;DHT22;8192;53.596;10.166;2022-08-21T00:01:25;11.30;99.90
16172;DHT22;8192;53.596;10.166;2022-08-21T00:03:54;11.20;99.90
16172;DHT22;8192;53.596;10.166;2022-08-21T00:06:23;11.10;99.90
16172;DHT22;8192;53.596;10.166;2022-08-21T00:08:50;11.10;99.90
16172;DHT22;8192;53.596;10.166;2022-08-21T00:11:17;11.10;99.90
16172;DHT22;8192;53.596;10.166;2022-08-21T00:13:46;11.10;99.90
16172;DHT22;8192;53.596;10.166;2022-08-21T00:16:15;11.00;99.90
16172;DHT22;8192;53.596;10.166;2022-08-21T00:18:42;10.90;99.90
16172;DHT22;8192;53.596;10.166;2022-08-21T00:21:10;10.90;99.90
16172;DHT22;8192;53.596;10.166;2022-08-21T00:23:41;10.90;99.90
16172;DHT22;8192;53.596;10.166;2022-08-21T00:26:09;10.90;99.90
16172;DHT22;8192;53.596;10.166;2022-08-21T00:28:36;10.90;99.90
16172;DHT22;8192;53.596;10.166;2022-08-21T00:31:04;10.90;99.90
16172;DHT22;8192;53.596;10.166;2022-08-21T00:33:30;10.80;99.90
16172;DHT22;8192;53.596;10.166;2022-08-21T00:35:58;10.80;99.90
16172;DHT22;8192;53.596;10.166;2022-08-21T00:38:25;10.80;99.90
16172;DHT22;8192;53.596;10.166;2022-08-21T00:40:55;10.80;99.90
16172;DHT22;8192;53.596;10.166;2022-08-21T00:43:24;10.70;99.90
16172;DHT22;8192;53.596;10.166;2022-08-21T00:45:53;10.60;99.90
16172;DHT22;8192;53.596;10.166;2022-08-21T00:48:20;10.60;99.90
16172;DHT22;8192;53.596;10.166;2022-08-21T00:50:48;10.50;99.90
16172;DHT22;8192;53.596;10.166;2022-08-21T00:53:17;10.50;99.90
16172;DHT22;8192;53.596;10.166;2022-08-21T00:55:44;10.50;99.90
16172;DHT22;8192;53.596;10.166;2022-08-21T00:58:13;10.50;99.90
16172;DHT22;8192;53.596;10.166;2022-08-21T01:00:41;10.60;99.90
16172;DHT22;8192;53.596;10.166;2022-08-21T01:03:13;10.70;99.90
16172;DHT22;8192;53.596;10.166;2022-08-21T01:05:40;10.70;99.90
16172;DHT22;8192;53.596;10.166;2022-08-21T01:08:08;10.70;99.90
16172;DHT22;8192;53.596;10.166;2022-08-21T01:10:36;10.60;99.90
16172;DHT22;8192;53.596;10.166;2022-08-21T01:13:04;10.50;99.90
16172;DHT22;8192;53.596;10.166;2022-08-21T01:15:36;10.40;99.90
16172;DHT22;8192;53.596;10.166;2022-08-21T01:18:03;10.50;99.90
16172;DHT22;8192;53.596;10.166;2022-08-21T01:20:30;10.50;99.90
16172;DHT22;8192;53.596;10.166;2022-08-21T01:23:00;10.50;99.90
16172;DHT22;8192;53.596;10.166;2022-08-21T01:25:28;10.40;99.90
16172;DHT22;8192;53.596;10.166;2022-08-21T01:27:55;10.40;99.90
16172;DHT22;8192;53.596;10.166;2022-08-21T01:30:25;10.30;99.90
16172;DHT22;8192;53.596;10.166;2022-08-21T01:32:52;10.30;99.90
16172;DHT22;8192;53.596;10.166;2022-08-21T01:35:19;10.50;99.90
16172;DHT22;8192;53.596;10.166;2022-08-21T01:37:47;10.40;99.90
16172;DHT22;8192;53.596;10.166;2022-08-21T01:40:16;10.60;99.90
16172;DHT22;8192;53.596;10.166;2022-08-21T01:42:43;10.40;99.90
16172;DHT22;8192;53.596;10.166;2022-08-21T01:45:11;10.30;99.90
16172;DHT22;8192;53.596;10.166;2022-08-21T01:47:38;10.30;99.90
16172;DHT22;8192;53.596;10.166;2022-08-21T01:50:07;10.30;99.90
16172;DHT22;8192;53.596;10.166;2022-08-21T01:52:34;10.30;99.90
16172;DHT22;8192;53.596;10.166;2022-08-21T01:55:01;10.20;99.90
16172;DHT22;8192;53.596;10.166;2022-08-21T01:57:30;10.20;99.90
16172;DHT22;8192;53.596;10.166;2022-08-21T01:59:58;10.20;99.90
16172;DHT22;8192;53.596;10.166;2022-08-21T02:02:25;10.20;99.90
16172;DHT22;8192;53.596;10.166;2022-08-21T02:04:52;10.30;99.90
16172;DHT22;8192;53.596;10.166;2022-08-21T02:07:19;10.30;99.90
16172;DHT22;8192;53.596;10.166;2022-08-21T02:09:46;10.40;99.90
16172;DHT22;8192;53.596;10.166;2022-08-21T02:12:13;10.30;99.90
16172;DHT22;8192;53.596;10.166;2022-08-21T02:14:42;10.30;99.90
16172;DHT22;8192;53.596;10.166;2022-08-21T02:17:08;10.30;99.90
16172;DHT22;8192;53.596;10.166;2022-08-21T02:19:35;10.30;99.90
16172;DHT22;8192;53.596;10.166;2022-08-21T02:22:02;10.20;99.90
16172;DHT22;8192;53.596;10.166;2022-08-21T02:24:29;10.20;99.90
16172;DHT22;8192;53.596;10.166;2022-08-21T02:26:56;10.20;99.90
16172;DHT22;8192;53.596;10.166;2022-08-21T02:29:23;10.30;99.90
16172;DHT22;8192;53.596;10.166;2022-08-21T02:31:52;10.40;99.90
16172;DHT22;8192;53.596;10.166;2022-08-21T02:34:19;10.40;99.90
16172;DHT22;8192;53.596;10.166;2022-08-21T02:36:46;10.40;99.90
16172;DHT22;8192;53.596;10.166;2022-08-21T02:39:13;10.40;99.90
16172;DHT22;8192;53.596;10.166;2022-08-21T02:41:39;10.50;99.90
16172;DHT22;8192;53.596;10.166;2022-08-21T02:44:06;10.40;99.90
16172;DHT22;8192;53.596;10.166;2022-08-21T02:46:33;10.40;99.90
16172;DHT22;8192;53.596;10.166;2022-08-21T02:52:02;10.30;99.90
16172;DHT22;8192;53.596;10.166;2022-08-21T02:54:31;10.20;99.90
16172;DHT22;8192;53.596;10.166;2022-08-21T02:56:59;10.20;99.90
16172;DHT22;8192;53.596;10.166;2022-08-21T02:59:26;10.20;99.90
16172;DHT22;8192;53.596;10.166;2022-08-21T03:01:59;10.40;99.90
16172;DHT22;8192;53.596;10.166;2022-08-21T03:04:29;10.40;99.90
16172;DHT22;8192;53.596;10.166;2022-08-21T03:13:00;10.50;99.90
16172;DHT22;8192;53.596;10.166;2022-08-21T03:15:29;10.50;99.90
16172;DHT22;8192;53.596;10.166;2022-08-21T03:17:55;10.50;99.90
16172;DHT22;8192;53.596;10.166;2022-08-21T03:20:23;10.60;99.90
16172;DHT22;8192;53.596;10.166;2022-08-21T03:22:51;10.50;99.90
16172;DHT22;8192;53.596;10.166;2022-08-21T03:25:18;10.30;99.90
16172;DHT22;8192;53.596;10.166;2022-08-21T03:27:45;10.30;99.90
16172;DHT22;8192;53.596;10.166;2022-08-21T03:30:16;10.30;99.90
16172;DHT22;8192;53.596;10.166;2022-08-21T03:32:43;10.30;99.90
16172;DHT22;8192;53.596;10.166;2022-08-21T03:35:10;10.30;99.90
16172;DHT22;8192;53.596;10.166;2022-08-21T03:37:36;10.20;99.90
16172;DHT22;8192;53.596;10.166;2022-08-21T03:40:03;10.20;99.90
16172;DHT22;8192;53.596;10.166;2022-08-21T03:42:31;10.10;99.90
16172;DHT22;8192;53.596;10.166;2022-08-21T03:44:58;10.10;99.90
16172;DHT22;8192;53.596;10.166;2022-08-21T03:47:27;10.20;99.90
16172;DHT22;8192;53.596;10.166;2022-08-21T03:49:55;10.30;99.90
16172;DHT22;8192;53.596;10.166;2022-08-21T03:52:22;10.10;99.90
16172;DHT22;8192;53.596;10.166;2022-08-21T03:54:49;10.10;99.90
16172;DHT22;8192;53.596;10.166;2022-08-21T03:57:16;10.10;99.90
16172;DHT22;8192;53.596;10.166;2022-08-21T03:59:43;10.00;99.90
16172;DHT22;8192;53.596;10.166;2022-08-21T04:02:12;10.00;99.90
16172;DHT22;8192;53.596;10.166;2022-08-21T04:04:42;10.00;99.90
16172;DHT22;8192;53.596;10.166;2022-08-21T04:07:09;10.00;99.90
16172;DHT22;8192;53.596;10.166;2022-08-21T04:09:44;10.00;99.90
16172;DHT22;8192;53.596;10.166;2022-08-21T04:12:12;10.10;99.90
16172;DHT22;8192;53.596;10.166;2022-08-21T04:14:39;10.20;99.90
16172;DHT22;8192;53.596;10.166;2022-08-21T04:17:07;10.20;99.90
16172;DHT22;8192;53.596;10.166;2022-08-21T04:19:34;10.30;99.90
16172;DHT22;8192;53.596;10.166;2022-08-21T04:22:04;10.40;99.90
16172;DHT22;8192;53.596;10.166;2022-08-21T04:24:32;10.40;99.90
16172;DHT22;8192;53.596;10.166;2022-08-21T04:27:01;10.50;99.90
16172;DHT22;8192;53.596;10.166;2022-08-21T04:29:30;10.50;99.90
16172;DHT22;8192;53.596;10.166;2022-08-21T04:31:57;10.50;99.90
16172;DHT22;8192;53.596;10.166;2022-08-21T04:34:24;10.50;99.90
16172;DHT22;8192;53.596;10.166;2022-08-21T04:36:53;10.50;99.90
16172;DHT22;8192;53.596;10.166;2022-08-21T04:39:22;10.50;99.90
16172;DHT22;8192;53.596;10.166;2022-08-21T04:41:50;10.60;99.90
16172;DHT22;8192;53.596;10.166;2022-08-21T04:44:18;10.70;99.90
16172;DHT22;8192;53.596;10.166;2022-08-21T04:46:45;10.90;99.90
16172;DHT22;8192;53.596;10.166;2022-08-21T04:49:12;11.00;99.90
16172;DHT22;8192;53.596;10.166;2022-08-21T04:51:40;11.10;99.90
16172;DHT22;8192;53.596;10.166;2022-08-21T04:54:08;11.30;99.90
16172;DHT22;8192;53.596;10.166;2022-08-21T04:56:39;11.40;99.90
16172;DHT22;8192;53.596;10.166;2022-08-21T04:59:11;11.50;99.90
16172;DHT22;8192;53.596;10.166;2022-08-21T05:01:39;11.50;99.90
16172;DHT22;8192;53.596;10.166;2022-08-21T05:04:09;11.60;99.90
16172;DHT22;8192;53.596;10.166;2022-08-21T05:06:37;11.70;99.90
16172;DHT22;8192;53.596;10.166;2022-08-21T05:09:06;11.80;99.90
16172;DHT22;8192;53.596;10.166;2022-08-21T05:11:34;11.80;99.90
16172;DHT22;8192;53.596;10.166;2022-08-21T05:16:48;12.30;99.90
16172;DHT22;8192;53.596;10.166;2022-08-21T05:19:29;12.60;99.90
16172;DHT22;8192;53.596;10.166;2022-08-21T05:22:00;12.90;99.90
16172;DHT22;8192;53.596;10.166;2022-08-21T05:24:32;13.10;99.90
16172;DHT22;8192;53.596;10.166;2022-08-21T05:26:59;13.50;99.90
16172;DHT22;8192;53.596;10.166;2022-08-21T05:29:26;13.80;99.90
16172;DHT22;8192;53.596;10.166;2022-08-21T05:31:58;13.90;99.90
16172;DHT22;8192;53.596;10.166;2022-08-21T05:34:27;14.10;99.90
16172;DHT22;8192;53.596;10.166;2022-08-21T05:36:55;14.70;99.90
16172;DHT22;8192;53.596;10.166;2022-08-21T05:39:22;14.90;99.90
16172;DHT22;8192;53.596;10.166;2022-08-21T05:41:49;15.20;99.90
16172;DHT22;8192;53.596;10.166;2022-08-21T05:44:19;16.00;99.90
16172;DHT22;8192;53.596;10.166;2022-08-21T05:46:55;16.60;99.90
16172;DHT22;8192;53.596;10.166;2022-08-21T05:49:23;16.60;99.90
16172;DHT22;8192;53.596;10.166;2022-08-21T05:51:50;16.20;99.90
16172;DHT22;8192;53.596;10.166;2022-08-21T05:54:17;15.90;99.90
16172;DHT22;8192;53.596;10.166;2022-08-21T05:56:44;16.00;99.90
16172;DHT22;8192;53.596;10.166;2022-08-21T05:59:11;16.50;99.90
16172;DHT22;8192;53.596;10.166;2022-08-21T06:01:38;16.60;99.90
16172;DHT22;8192;53.596;10.166;2022-08-21T06:04:05;17.00;99.90
16172;DHT22;8192;53.596;10.166;2022-08-21T06:06:34;17.60;99.90
16172;DHT22;8192;53.596;10.166;2022-08-21T06:09:01;17.70;99.90
16172;DHT22;8192;53.596;10.166;2022-08-21T06:11:28;17.90;99.90
16172;DHT22;8192;53.596;10.166;2022-08-21T06:13:55;18.20;99.90
16172;DHT22;8192;53.596;10.166;2022-08-21T06:16:22;18.10;99.90
16172;DHT22;8192;53.596;10.166;2022-08-21T06:18:49;17.80;99.90
16172;DHT22;8192;53.596;10.166;2022-08-21T06:21:16;17.60;99.90
16172;DHT22;8192;53.596;10.166;2022-08-21T06:23:44;17.20;99.90
16172;DHT22;8192;53.596;10.166;2022-08-21T06:26:12;16.90;99.90
16172;DHT22;8192;53.596;10.166;2022-08-21T06:28:39;16.40;99.90
16172;DHT22;8192;53.596;10.166;2022-08-21T06:31:10;16.10;99.90
16172;DHT22;8192;53.596;10.166;2022-08-21T06:33:37;16.00;99.90
16172;DHT22;8192;53.596;10.166;2022-08-21T06:36:04;16.30;99.90
16172;DHT22;8192;53.596;10.166;2022-08-21T06:38:31;17.00;99.90
16172;DHT22;8192;53.596;10.166;2022-08-21T06:40:59;17.50;99.90
16172;DHT22;8192;53.596;10.166;2022-08-21T06:43:26;17.90;99.90
16172;DHT22;8192;53.596;10.166;2022-08-21T06:45:52;17.90;99.90
16172;DHT22;8192;53.596;10.166;2022-08-21T06:48:19;17.80;99.90
16172;DHT22;8192;53.596;10.166;2022-08-21T06:50:47;17.70;99.90
16172;DHT22;8192;53.596;10.166;2022-08-21T06:53:14;17.60;99.90
16172;DHT22;8192;53.596;10.166;2022-08-21T06:55:41;17.60;99.90
16172;DHT22;8192;53.596;10.166;2022-08-21T06:58:10;17.60;99.90
16172;DHT22;8192;53.596;10.166;2022-08-21T07:00:38;17.70;99.90
16172;DHT22;8192;53.596;10.166;2022-08-21T07:03:07;17.90;99.90
16172;DHT22;8192;53.596;10.166;2022-08-21T07:05:50;18.40;99.90
16172;DHT22;8192;53.596;10.166;2022-08-21T07:08:26;19.60;99.90
16172;DHT22;8192;53.596;10.166;2022-08-21T07:11:11;20.90;99.90
16172;DHT22;8192;53.596;10.166;2022-08-21T07:13:40;21.90;99.90
16172;DHT22;8192;53.596;10.166;2022-08-21T07:16:07;22.90;99.90
16172;DHT22;8192;53.596;10.166;2022-08-21T07:21:14;23.60;99.90
16172;DHT22;8192;53.596;10.166;2022-08-21T07:23:42;24.10;99.90
16172;DHT22;8192;53.596;10.166;2022-08-21T07:26:09;24.40;99.90
16172;DHT22;8192;53.596;10.166;2022-08-21T07:28:39;24.60;99.90
16172;DHT22;8192;53.596;10.166;2022-08-21T07:31:06;24.20;99.90
16172;DHT22;8192;53.596;10.166;2022-08-21T07:33:34;23.90;99.90
16172;DHT22;8192;53.596;10.166;2022-08-21T07:36:01;23.90;99.90
16172;DHT22;8192;53.596;10.166;2022-08-21T07:38:28;24.20;99.90
16172;DHT22;8192;53.596;10.166;2022-08-21T07:40:55;24.70;99.90
16172;DHT22;8192;53.596;10.166;2022-08-21T07:43:24;24.90;99.90
16172;DHT22;8192;53.596;10.166;2022-08-21T07:45:52;25.30;99.90
16172;DHT22;8192;53.596;10.166;2022-08-21T07:48:20;25.50;99.90
16172;DHT22;8192;53.596;10.166;2022-08-21T07:50:47;25.60;99.90
16172;DHT22;8192;53.596;10.166;2022-08-21T07:53:13;25.60;99.90
16172;DHT22;8192;53.596;10.166;2022-08-21T07:55:40;25.70;99.90
16172;DHT22;8192;53.596;10.166;2022-08-21T07:58:07;25.40;99.90
16172;DHT22;8192;53.596;10.166;2022-08-21T08:00:34;25.00;99.90
16172;DHT22;8192;53.596;10.166;2022-08-21T08:03:04;24.90;99.90
16172;DHT22;8192;53.596;10.166;2022-08-21T08:05:32;25.10;99.90
16172;DHT22;8192;53.596;10.166;2022-08-21T08:08:01;25.10;99.90
16172;DHT22;8192;53.596;10.166;2022-08-21T08:10:28;25.10;99.90
16172;DHT22;8192;53.596;10.166;2022-08-21T08:12:55;24.60;99.90
16172;DHT22;8192;53.596;10.166;2022-08-21T08:15:23;23.90;99.90
16172;DHT22;8192;53.596;10.166;2022-08-21T08:17:50;22.90;99.90
16172;DHT22;8192;53.596;10.166;2022-08-21T08:20:18;21.70;99.90
16172;DHT22;8192;53.596;10.166;2022-08-21T08:22:47;21.20;99.90
16172;DHT22;8192;53.596;10.166;2022-08-21T08:25:14;21.00;99.90
16172;DHT22;8192;53.596;10.166;2022-08-21T08:27:41;20.80;99.90
16172;DHT22;8192;53.596;10.166;2022-08-21T08:30:09;21.00;99.90
16172;DHT22;8192;53.596;10.166;2022-08-21T08:32:37;21.10;99.90
16172;DHT22;8192;53.596;10.166;2022-08-21T08:35:04;21.30;99.90
16172;DHT22;8192;53.596;10.166;2022-08-21T08:37:37;21.40;99.90
16172;DHT22;8192;53.596;10.166;2022-08-21T08:40:05;21.20;99.90
16172;DHT22;8192;53.596;10.166;2022-08-21T08:42:34;21.20;99.90
16172;DHT22;8192;53.596;10.166;2022-08-21T08:45:04;21.30;99.90
16172;DHT22;8192;53.596;10.166;2022-08-21T08:47:32;21.40;99.90
16172;DHT22;8192;53.596;10.166;2022-08-21T08:50:02;21.50;99.90
16172;DHT22;8192;53.596;10.166;2022-08-21T08:52:30;21.40;99.90
16172;DHT22;8192;53.596;10.166;2022-08-21T08:55:01;21.50;99.90
16172;DHT22;8192;53.596;10.166;2022-08-21T08:57:28;21.50;99.90
16172;DHT22;8192;53.596;10.166;2022-08-21T08:59:56;21.50;99.90
16172;DHT22;8192;53.596;10.166;2022-08-21T09:02:24;21.80;99.90
16172;DHT22;8192;53.596;10.166;2022-08-21T09:04:53;21.90;99.90
16172;DHT22;8192;53.596;10.166;2022-08-21T09:07:22;21.80;99.90
16172;DHT22;8192;53.596;10.166;2022-08-21T09:09:55;21.60;99.90
16172;DHT22;8192;53.596;10.166;2022-08-21T09:15:36;21.50;99.90
16172;DHT22;8192;53.596;10.166;2022-08-21T09:18:18;21.70;99.90
16172;DHT22;8192;53.596;10.166;2022-08-21T09:20:50;21.70;99.90
16172;DHT22;8192;53.596;10.166;2022-08-21T09:23:24;21.70;99.90
16172;DHT22;8192;53.596;10.166;2022-08-21T09:25:55;21.70;99.90
16172;DHT22;8192;53.596;10.166;2022-08-21T09:28:25;21.80;99.90
16172;DHT22;8192;53.596;10.166;2022-08-21T09:30:55;21.70;99.90
16172;DHT22;8192;53.596;10.166;2022-08-21T09:33:27;21.80;99.90
16172;DHT22;8192;53.596;10.166;2022-08-21T09:35:55;21.90;99.90
16172;DHT22;8192;53.596;10.166;2022-08-21T09:38:27;21.90;99.90
16172;DHT22;8192;53.596;10.166;2022-08-21T09:41:07;21.90;99.90
16172;DHT22;8192;53.596;10.166;2022-08-21T09:43:35;22.10;99.90
16172;DHT22;8192;53.596;10.166;2022-08-21T09:46:06;22.10;99.90
16172;DHT22;8192;53.596;10.166;2022-08-21T09:48:39;22.20;99.90
16172;DHT22;8192;53.596;10.166;2022-08-21T09:51:07;22.20;99.90
16172;DHT22;8192;53.596;10.166;2022-08-21T09:53:37;22.20;99.90
16172;DHT22;8192;53.596;10.166;2022-08-21T09:56:16;22.30;99.90
16172;DHT22;8192;53.596;10.166;2022-08-21T09:59:00;22.40;99.90
16172;DHT22;8192;53.596;10.166;2022-08-21T10:01:29;22.60;99.90
16172;DHT22;8192;53.596;10.166;2022-08-21T10:04:01;22.80;99.90
16172;DHT22;8192;53.596;10.166;2022-08-21T10:06:28;22.90;99.90
16172;DHT22;8192;53.596;10.166;2022-08-21T10:09:03;22.90;99.90
16172;DHT22;8192;53.596;10.166;2022-08-21T10:17:43;23.30;99.90
16172;DHT22;8192;53.596;10.166;2022-08-21T10:20:13;23.10;99.90
16172;DHT22;8192;53.596;10.166;2022-08-21T10:22:42;23.10;99.90
16172;DHT22;8192;53.596;10.166;2022-08-21T10:25:14;23.20;99.90
16172;DHT22;8192;53.596;10.166;2022-08-21T10:27:48;23.60;99.90
16172;DHT22;8192;53.596;10.166;2022-08-21T10:30:30;23.90;99.90
16172;DHT22;8192;53.596;10.166;2022-08-21T10:35:58;24.10;99.90
16172;DHT22;8192;53.596;10.166;2022-08-21T10:38:50;23.90;99.90
16172;DHT22;8192;53.596;10.166;2022-08-21T10:41:21;23.80;99.90
16172;DHT22;8192;53.596;10.166;2022-08-21T10:46:50;23.80;99.90
16172;DHT22;8192;53.596;10.166;2022-08-21T10:49:22;24.00;99.90
16172;DHT22;8192;53.596;10.166;2022-08-21T10:51:54;23.80;99.90
16172;DHT22;8192;53.596;10.166;2022-08-21T10:54:26;23.40;99.90
16172;DHT22;8192;53.596;10.166;2022-08-21T10:59:57;23.50;99.90
16172;DHT22;8192;53.596;10.166;2022-08-21T11:02:31;23.80;99.90
16172;DHT22;8192;53.596;10.166;2022-08-21T11:05:00;24.00;99.90
16172;DHT22;8192;53.596;10.166;2022-08-21T11:07:32;23.80;99.90
16172;DHT22;8192;53.596;10.166;2022-08-21T11:10:04;24.00;99.90
16172;DHT22;8192;53.596;10.166;2022-08-21T11:12:38;24.20;99.90
16172;DHT22;8192;53.596;10.166;2022-08-21T11:15:15;24.10;99.90
16172;DHT22;8192;53.596;10.166;2022-08-21T11:20:59;23.80;99.90
16172;DHT22;8192;53.596;10.166;2022-08-21T11:23:31;23.80;99.90
16172;DHT22;8192;53.596;10.166;2022-08-21T11:26:00;24.00;99.90
16172;DHT22;8192;53.596;10.166;2022-08-21T11:28:29;24.30;99.90
16172;DHT22;8192;53.596;10.166;2022-08-21T11:37:05;24.30;99.90
16172;DHT22;8192;53.596;10.166;2022-08-21T11:39:55;24.20;99.90
16172;DHT22;8192;53.596;10.166;2022-08-21T11:42:29;24.00;99.90
16172;DHT22;8192;53.596;10.166;2022-08-21T11:45:01;23.80;99.90
16172;DHT22;8192;53.596;10.166;2022-08-21T11:47:32;23.70;99.90
16172;DHT22;8192;53.596;10.166;2022-08-21T11:50:02;23.60;99.90
16172;DHT22;8192;53.596;10.166;2022-08-21T11:52:34;23.50;99.90
16172;DHT22;8192;53.596;10.166;2022-08-21T11:55:05;23.40;99.90
16172;DHT22;8192;53.596;10.166;2022-08-21T11:57:55;23.40;99.90
16172;DHT22;8192;53.596;10.166;2022-08-21T12:00:33;23.40;99.00
16172;DHT22;8192;53.596;10.166;2022-08-21T12:03:06;23.40;99.80
16172;DHT22;8192;53.596;10.166;2022-08-21T12:05:35;23.50;97.60
16172;DHT22;8192;53.596;10.166;2022-08-21T12:08:06;23.60;94.70
16172;DHT22;8192;53.596;10.166;2022-08-21T12:10:37;23.90;92.60
16172;DHT22;8192;53.596;10.166;2022-08-21T12:16:04;24.00;91.10
16172;DHT22;8192;53.596;10.166;2022-08-21T12:18:32;24.10;90.00
16172;DHT22;8192;53.596;10.166;2022-08-21T12:21:01;24.20;87.80
16172;DHT22;8192;53.596;10.166;2022-08-21T12:23:30;24.30;90.80
16172;DHT22;8192;53.596;10.166;2022-08-21T12:28:44;24.20;78.40
16172;DHT22;8192;53.596;10.166;2022-08-21T12:31:22;24.30;77.20
16172;DHT22;8192;53.596;10.166;2022-08-21T12:33:51;24.40;77.30
16172;DHT22;8192;53.596;10.166;2022-08-21T12:36:21;24.60;73.90
16172;DHT22;8192;53.596;10.166;2022-08-21T12:38:51;24.80;68.60
16172;DHT22;8192;53.596;10.166;2022-08-21T12:41:19;25.00;65.10
16172;DHT22;8192;53.596;10.166;2022-08-21T12:43:50;25.30;63.80
16172;DHT22;8192;53.596;10.166;2022-08-21T12:46:18;25.10;55.00
16172;DHT22;8192;53.596;10.166;2022-08-21T12:48:47;25.00;58.70
16172;DHT22;8192;53.596;10.166;2022-08-21T12:51:16;24.60;57.50
16172;DHT22;8192;53.596;10.166;2022-08-21T12:53:44;24.30;57.00
16172;DHT22;8192;53.596;10.166;2022-08-21T12:56:13;24.20;55.90
16172;DHT22;8192;53.596;10.166;2022-08-21T12:58:49;24.40;56.20
16172;DHT22;8192;53.596;10.166;2022-08-21T13:01:18;24.20;53.20
16172;DHT22;8192;53.596;10.166;2022-08-21T13:03:45;24.20;55.00
16172;DHT22;8192;53.596;10.166;2022-08-21T13:06:13;24.70;55.20
16172;DHT22;8192;53.596;10.166;2022-08-21T13:08:41;25.10;52.70
16172;DHT22;8192;53.596;10.166;2022-08-21T13:11:09;25.30;49.70
16172;DHT22;8192;53.596;10.166;2022-08-21T13:13:36;25.40;48.40
16172;DHT22;8192;53.596;10.166;2022-08-21T13:16:06;25.50;50.10
16172;DHT22;8192;53.596;10.166;2022-08-21T13:18:33;25.80;45.70
16172;DHT22;8192;53.596;10.166;2022-08-21T13:21:04;26.10;48.70
16172;DHT22;8192;53.596;10.166;2022-08-21T13:23:32;26.10;44.30
16172;DHT22;8192;53.596;10.166;2022-08-21T13:25:58;26.20;43.70
16172;DHT22;8192;53.596;10.166;2022-08-21T13:28:32;25.70;40.70
16172;DHT22;8192;53.596;10.166;2022-08-21T13:30:59;25.80;43.20
16172;DHT22;8192;53.596;10.166;2022-08-21T13:33:29;25.70;41.20
16172;DHT22;8192;53.596;10.166;2022-08-21T13:35:59;25.50;40.60
16172;DHT22;8192;53.596;10.166;2022-08-21T13:38:28;25.30;40.20
16172;DHT22;8192;53.596;10.166;2022-08-21T13:40:56;25.10;38.30
16172;DHT22;8192;53.596;10.166;2022-08-21T13:43:25;24.90;37.70
16172;DHT22;8192;53.596;10.166;2022-08-21T13:45:54;24.50;38.10
16172;DHT22;8192;53.596;10.166;2022-08-21T13:48:22;24.90;37.20
16172;DHT22;8192;53.596;10.166;2022-08-21T13:50:53;24.80;36.60
16172;DHT22;8192;53.596;10.166;2022-08-21T13:53:22;24.70;35.50
16172;DHT22;8192;53.596;10.166;2022-08-21T13:55:50;24.40;34.40
16172;DHT22;8192;53.596;10.166;2022-08-21T13:58:24;24.80;30.10
16172;DHT22;8192;53.596;10.166;2022-08-21T14:00:51;25.20;29.40
16172;DHT22;8192;53.596;10.166;2022-08-21T14:03:23;25.90;35.00
16172;DHT22;8192;53.596;10.166;2022-08-21T14:05:53;26.40;31.70
16172;DHT22;8192;53.596;10.166;2022-08-21T14:08:22;27.10;29.60
16172;DHT22;8192;53.596;10.166;2022-08-21T14:13:49;26.70;26.90
16172;DHT22;8192;53.596;10.166;2022-08-21T14:16:18;25.80;24.90
16172;DHT22;8192;53.596;10.166;2022-08-21T14:18:50;25.80;27.20
16172;DHT22;8192;53.596;10.166;2022-08-21T14:21:27;26.30;26.30
16172;DHT22;8192;53.596;10.166;2022-08-21T14:24:05;27.20;27.00
16172;DHT22;8192;53.596;10.166;2022-08-21T14:26:34;26.80;22.90
16172;DHT22;8192;53.596;10.166;2022-08-21T14:29:01;26.20;25.50
16172;DHT22;8192;53.596;10.166;2022-08-21T14:31:31;25.60;24.60
16172;DHT22;8192;53.596;10.166;2022-08-21T14:34:00;24.90;25.60
16172;DHT22;8192;53.596;10.166;2022-08-21T14:36:28;24.50;26.80
16172;DHT22;8192;53.596;10.166;2022-08-21T14:38:55;24.60;24.70
16172;DHT22;8192;53.596;10.166;2022-08-21T14:41:25;24.50;24.60
16172;DHT22;8192;53.596;10.166;2022-08-21T14:43:53;25.10;25.00
16172;DHT22;8192;53.596;10.166;2022-08-21T14:46:21;26.20;26.50
16172;DHT22;8192;53.596;10.166;2022-08-21T14:48:48;27.00;23.50
16172;DHT22;8192;53.596;10.166;2022-08-21T14:51:16;27.00;21.00
16172;DHT22;8192;53.596;10.166;2022-08-21T14:53:45;26.70;20.90
16172;DHT22;8192;53.596;10.166;2022-08-21T14:56:15;26.40;20.10
16172;DHT22;8192;53.596;10.166;2022-08-21T14:58:42;25.70;22.30
16172;DHT22;8192;53.596;10.166;2022-08-21T15:01:10;25.20;21.30
16172;DHT22;8192;53.596;10.166;2022-08-21T15:03:38;24.50;22.70
16172;DHT22;8192;53.596;10.166;2022-08-21T15:06:05;24.40;24.70
16172;DHT22;8192;53.596;10.166;2022-08-21T15:08:33;24.30;24.50
16172;DHT22;8192;53.596;10.166;2022-08-21T15:11:01;24.50;25.20
16172;DHT22;8192;53.596;10.166;2022-08-21T15:13:29;24.60;25.80
16172;DHT22;8192;53.596;10.166;2022-08-21T15:15:57;24.50;24.80
16172;DHT22;8192;53.596;10.166;2022-08-21T15:18:25;24.70;26.40
16172;DHT22;8192;53.596;10.166;2022-08-21T15:20:52;25.00;24.80
16172;DHT22;8192;53.596;10.166;2022-08-21T15:23:19;25.20;21.80
16172;DHT22;8192;53.596;10.166;2022-08-21T15:25:46;25.40;23.20
16172;DHT22;8192;53.596;10.166;2022-08-21T15:28:15;25.50;22.80
16172;DHT22;8192;53.596;10.166;2022-08-21T15:30:43;25.50;20.40
16172;DHT22;8192;53.596;10.166;2022-08-21T15:33:10;25.50;21.10
16172;DHT22;8192;53.596;10.166;2022-08-21T15:35:37;25.50;21.20
16172;DHT22;8192;53.596;10.166;2022-08-21T15:38:04;25.30;21.00
16172;DHT22;8192;53.596;10.166;2022-08-21T15:40:31;25.20;20.40
16172;DHT22;8192;53.596;10.166;2022-08-21T15:42:58;25.00;21.70
16172;DHT22;8192;53.596;10.166;2022-08-21T15:45:27;24.70;20.80
16172;DHT22;8192;53.596;10.166;2022-08-21T15:47:54;24.50;20.20
16172;DHT22;8192;53.596;10.166;2022-08-21T15:50:22;24.40;23.80
16172;DHT22;8192;53.596;10.166;2022-08-21T15:52:49;24.20;22.80
16172;DHT22;8192;53.596;10.166;2022-08-21T15:55:15;24.20;25.20
16172;DHT22;8192;53.596;10.166;2022-08-21T15:57:43;24.10;22.60
16172;DHT22;8192;53.596;10.166;2022-08-21T16:00:12;24.10;22.90
16172;DHT22;8192;53.596;10.166;2022-08-21T16:02:42;24.10;22.20
16172;DHT22;8192;53.596;10.166;2022-08-21T16:05:09;24.20;20.90
16172;DHT22;8192;53.596;10.166;2022-08-21T16:07:37;24.30;21.30
16172;DHT22;8192;53.596;10.166;2022-08-21T16:10:07;24.30;20.70
16172;DHT22;8192;53.596;10.166;2022-08-21T16:12:35;24.30;20.40
16172;DHT22;8192;53.596;10.166;2022-08-21T16:15:04;24.40;20.90
16172;DHT22;8192;53.596;10.166;2022-08-21T16:17:32;24.20;19.40
16172;DHT22;8192;53.596;10.166;2022-08-21T16:20:01;24.30;20.60
16172;DHT22;8192;53.596;10.166;2022-08-21T16:22:29;24.30;19.90
16172;DHT22;8192;53.596;10.166;2022-08-21T16:24:55;24.50;19.70
16172;DHT22;8192;53.596;10.166;2022-08-21T16:27:22;24.50;18.60
16172;DHT22;8192;53.596;10.166;2022-08-21T16:29:49;24.40;18.70
16172;DHT22;8192;53.596;10.166;2022-08-21T16:32:16;24.20;19.70